sensor_id;sensor_type;location;lat;lon;timestamp;P1;durP1;ratioP1;P2;durP2;ratioP2
19414;SDS011;9843;48.882;12.592;2024-03-08T00:01:17;38.63;;;25.50;;
19414;SDS011;9843;48.882;12.592;2024-03-08T00:03:44;31.87;;;24.17;;
19414;SDS011;9843;48.882;12.592;2024-03-08T00:06:11;34.80;;;23.50;;
19414;SDS011;9843;48.882;12.592;2024-03-08T00:08:38;33.73;;;24.33;;
19414;SDS011;9843;48.882;12.592;2024-03-08T00:11:05;47.57;;;27.27;;
19414;SDS011;9843;48.882;12.592;2024-03-08T00:13:33;40.10;;;23.93;;
19414;SDS011;9843;48.882;12.592;2024-03-08T00:16:00;43.27;;;26.83;;
19414;SDS011;9843;48.882;12.592;2024-03-08T00:18:28;46.47;;;27.30;;
19414;SDS011;9843;48.882;12.592;2024-03-08T00:20:55;39.13;;;25.17;;
19414;SDS011;9843;48.882;12.592;2024-03-08T00:23:22;37.43;;;26.17;;
19414;SDS011;9843;48.882;12.592;2024-03-08T00:25:50;39.03;;;24.83;;
19414;SDS011;9843;48.882;12.592;2024-03-08T00:28:17;42.87;;;25.80;;
19414;SDS011;9843;48.882;12.592;2024-03-08T00:30:44;39.00;;;23.20;;
19414;SDS011;9843;48.882;12.592;2024-03-08T00:33:11;36.43;;;22.57;;
19414;SDS011;9843;48.882;12.592;2024-03-08T00:35:40;37.43;;;25.57;;
19414;SDS011;9843;48.882;12.592;2024-03-08T00:38:07;37.80;;;24.77;;
19414;SDS011;9843;48.882;12.592;2024-03-08T00:40:34;34.57;;;23.17;;
19414;SDS011;9843;48.882;12.592;2024-03-08T00:43:01;31.30;;;23.33;;
19414;SDS011;9843;48.882;12.592;2024-03-08T00:45:28;34.63;;;24.40;;
19414;SDS011;9843;48.882;12.592;2024-03-08T00:47:55;34.37;;;24.27;;
19414;SDS011;9843;48.882;12.592;2024-03-08T00:50:22;37.93;;;24.07;;
19414;SDS011;9843;48.882;12.592;2024-03-08T00:52:51;35.73;;;27.33;;
19414;SDS011;9843;48.882;12.592;2024-03-08T00:55:18;35.73;;;25.37;;
19414;SDS011;9843;48.882;12.592;2024-03-08T00:57:45;42.83;;;26.20;;
19414;SDS011;9843;48.882;12.592;2024-03-08T01:00:15;30.33;;;24.27;;
19414;SDS011;9843;48.882;12.592;2024-03-08T01:02:43;42.60;;;25.07;;
19414;SDS011;9843;48.882;12.592;2024-03-08T01:05:10;40.23;;;27.43;;
19414;SDS011;9843;48.882;12.592;2024-03-08T01:07:37;36.70;;;24.43;;
19414;SDS011;9843;48.882;12.592;2024-03-08T01:10:06;35.50;;;24.30;;
19414;SDS011;9843;48.882;12.592;2024-03-08T01:12:34;40.33;;;27.17;;
19414;SDS011;9843;48.882;12.592;2024-03-08T01:15:01;35.20;;;25.53;;
19414;SDS011;9843;48.882;12.592;2024-03-08T01:17:28;38.43;;;25.47;;
19414;SDS011;9843;48.882;12.592;2024-03-08T01:19:56;45.17;;;27.30;;
19414;SDS011;9843;48.882;12.592;2024-03-08T01:22:23;37.30;;;24.87;;
19414;SDS011;9843;48.882;12.592;2024-03-08T01:24:50;35.20;;;24.83;;
19414;SDS011;9843;48.882;12.592;2024-03-08T01:27:18;36.07;;;22.83;;
19414;SDS011;9843;48.882;12.592;2024-03-08T01:29:46;42.00;;;23.97;;
19414;SDS011;9843;48.882;12.592;2024-03-08T01:32:13;36.87;;;25.17;;
19414;SDS011;9843;48.882;12.592;2024-03-08T01:34:40;39.67;;;27.00;;
19414;SDS011;9843;48.882;12.592;2024-03-08T01:37:07;43.30;;;26.27;;
19414;SDS011;9843;48.882;12.592;2024-03-08T01:39:34;35.07;;;22.17;;
19414;SDS011;9843;48.882;12.592;2024-03-08T01:42:01;32.07;;;24.37;;
19414;SDS011;9843;48.882;12.592;2024-03-08T01:44:29;32.43;;;22.13;;
19414;SDS011;9843;48.882;12.592;2024-03-08T01:46:56;39.10;;;24.87;;
19414;SDS011;9843;48.882;12.592;2024-03-08T01:49:24;30.90;;;22.90;;
19414;SDS011;9843;48.882;12.592;2024-03-08T01:51:53;35.60;;;24.23;;
19414;SDS011;9843;48.882;12.592;2024-03-08T01:54:21;32.50;;;23.00;;
19414;SDS011;9843;48.882;12.592;2024-03-08T01:56:49;36.10;;;24.10;;
19414;SDS011;9843;48.882;12.592;2024-03-08T01:59:18;39.30;;;24.63;;
19414;SDS011;9843;48.882;12.592;2024-03-08T02:01:47;35.70;;;23.67;;
19414;SDS011;9843;48.882;12.592;2024-03-08T02:04:14;33.53;;;22.90;;
19414;SDS011;9843;48.882;12.592;2024-03-08T02:06:41;35.60;;;21.57;;
19414;SDS011;9843;48.882;12.592;2024-03-08T02:09:10;35.63;;;22.93;;
19414;SDS011;9843;48.882;12.592;2024-03-08T02:11:37;34.00;;;23.23;;
19414;SDS011;9843;48.882;12.592;2024-03-08T02:14:04;35.07;;;23.13;;
19414;SDS011;9843;48.882;12.592;2024-03-08T02:16:31;29.70;;;22.47;;
19414;SDS011;9843;48.882;12.592;2024-03-08T02:19:00;30.80;;;21.77;;
19414;SDS011;9843;48.882;12.592;2024-03-08T02:21:28;33.83;;;24.03;;
19414;SDS011;9843;48.882;12.592;2024-03-08T02:23:56;33.80;;;23.20;;
19414;SDS011;9843;48.882;12.592;2024-03-08T02:26:23;32.37;;;22.47;;
19414;SDS011;9843;48.882;12.592;2024-03-08T02:28:50;34.87;;;22.17;;
19414;SDS011;9843;48.882;12.592;2024-03-08T02:31:17;35.83;;;24.90;;
19414;SDS011;9843;48.882;12.592;2024-03-08T02:33:44;39.07;;;23.47;;
19414;SDS011;9843;48.882;12.592;2024-03-08T02:36:12;33.90;;;23.70;;
19414;SDS011;9843;48.882;12.592;2024-03-08T02:38:40;42.40;;;23.93;;
19414;SDS011;9843;48.882;12.592;2024-03-08T02:41:08;34.80;;;22.40;;
19414;SDS011;9843;48.882;12.592;2024-03-08T02:43:35;36.10;;;25.77;;
19414;SDS011;9843;48.882;12.592;2024-03-08T02:46:03;38.70;;;25.00;;
19414;SDS011;9843;48.882;12.592;2024-03-08T02:48:31;36.10;;;23.17;;
19414;SDS011;9843;48.882;12.592;2024-03-08T02:50:58;33.77;;;22.80;;
19414;SDS011;9843;48.882;12.592;2024-03-08T02:53:27;32.43;;;22.40;;
19414;SDS011;9843;48.882;12.592;2024-03-08T02:55:55;40.37;;;24.43;;
19414;SDS011;9843;48.882;12.592;2024-03-08T02:58:22;40.37;;;26.73;;
19414;SDS011;9843;48.882;12.592;2024-03-08T03:00:49;42.80;;;30.00;;
19414;SDS011;9843;48.882;12.592;2024-03-08T03:03:16;37.80;;;23.50;;
19414;SDS011;9843;48.882;12.592;2024-03-08T03:05:43;41.73;;;25.93;;
19414;SDS011;9843;48.882;12.592;2024-03-08T03:08:10;33.70;;;24.00;;
19414;SDS011;9843;48.882;12.592;2024-03-08T03:10:38;38.77;;;25.37;;
19414;SDS011;9843;48.882;12.592;2024-03-08T03:13:06;33.13;;;24.23;;
19414;SDS011;9843;48.882;12.592;2024-03-08T03:15:33;36.30;;;24.07;;
19414;SDS011;9843;48.882;12.592;2024-03-08T03:18:01;36.53;;;24.27;;
19414;SDS011;9843;48.882;12.592;2024-03-08T03:20:28;35.90;;;25.27;;
19414;SDS011;9843;48.882;12.592;2024-03-08T03:22:58;38.53;;;26.67;;
19414;SDS011;9843;48.882;12.592;2024-03-08T03:25:27;36.33;;;23.63;;
19414;SDS011;9843;48.882;12.592;2024-03-08T03:27:59;40.73;;;26.10;;
19414;SDS011;9843;48.882;12.592;2024-03-08T03:30:28;35.77;;;27.33;;
19414;SDS011;9843;48.882;12.592;2024-03-08T03:32:58;36.13;;;23.87;;
19414;SDS011;9843;48.882;12.592;2024-03-08T03:35:25;40.70;;;25.83;;
19414;SDS011;9843;48.882;12.592;2024-03-08T03:37:52;41.30;;;24.93;;
19414;SDS011;9843;48.882;12.592;2024-03-08T03:40:27;35.33;;;24.50;;
19414;SDS011;9843;48.882;12.592;2024-03-08T03:42:54;42.10;;;28.60;;
19414;SDS011;9843;48.882;12.592;2024-03-08T03:45:21;41.37;;;28.67;;
19414;SDS011;9843;48.882;12.592;2024-03-08T03:47:50;39.23;;;25.73;;
19414;SDS011;9843;48.882;12.592;2024-03-08T03:50:17;35.40;;;23.80;;
19414;SDS011;9843;48.882;12.592;2024-03-08T03:52:45;35.63;;;24.60;;
19414;SDS011;9843;48.882;12.592;2024-03-08T03:55:12;37.57;;;24.60;;
19414;SDS011;9843;48.882;12.592;2024-03-08T03:57:40;38.73;;;27.13;;
19414;SDS011;9843;48.882;12.592;2024-03-08T04:00:07;40.83;;;27.43;;
19414;SDS011;9843;48.882;12.592;2024-03-08T04:02:36;38.00;;;25.80;;
19414;SDS011;9843;48.882;12.592;2024-03-08T04:05:04;41.13;;;25.23;;
19414;SDS011;9843;48.882;12.592;2024-03-08T04:07:32;38.40;;;27.73;;
19414;SDS011;9843;48.882;12.592;2024-03-08T04:09:59;47.77;;;27.13;;
19414;SDS011;9843;48.882;12.592;2024-03-08T04:12:26;39.87;;;25.30;;
19414;SDS011;9843;48.882;12.592;2024-03-08T04:14:54;53.33;;;30.53;;
19414;SDS011;9843;48.882;12.592;2024-03-08T04:17:21;42.13;;;26.77;;
19414;SDS011;9843;48.882;12.592;2024-03-08T04:19:49;35.57;;;23.83;;
19414;SDS011;9843;48.882;12.592;2024-03-08T04:22:17;34.40;;;25.87;;
19414;SDS011;9843;48.882;12.592;2024-03-08T04:24:45;38.50;;;25.50;;
19414;SDS011;9843;48.882;12.592;2024-03-08T04:27:12;35.50;;;25.67;;
19414;SDS011;9843;48.882;12.592;2024-03-08T04:29:39;40.93;;;24.70;;
19414;SDS011;9843;48.882;12.592;2024-03-08T04:32:07;40.27;;;25.97;;
19414;SDS011;9843;48.882;12.592;2024-03-08T04:34:34;44.33;;;26.73;;
19414;SDS011;9843;48.882;12.592;2024-03-08T04:37:01;34.47;;;26.93;;
19414;SDS011;9843;48.882;12.592;2024-03-08T04:39:31;37.93;;;26.20;;
19414;SDS011;9843;48.882;12.592;2024-03-08T04:41:59;37.10;;;25.87;;
19414;SDS011;9843;48.882;12.592;2024-03-08T04:44:29;43.13;;;24.77;;
19414;SDS011;9843;48.882;12.592;2024-03-08T04:46:56;39.60;;;25.07;;
19414;SDS011;9843;48.882;12.592;2024-03-08T04:49:24;31.90;;;23.13;;
19414;SDS011;9843;48.882;12.592;2024-03-08T04:51:51;41.03;;;29.97;;
19414;SDS011;9843;48.882;12.592;2024-03-08T04:54:18;41.80;;;28.67;;
19414;SDS011;9843;48.882;12.592;2024-03-08T04:56:46;42.67;;;27.73;;
19414;SDS011;9843;48.882;12.592;2024-03-08T04:59:13;34.30;;;24.10;;
19414;SDS011;9843;48.882;12.592;2024-03-08T05:01:40;36.77;;;26.47;;
19414;SDS011;9843;48.882;12.592;2024-03-08T05:04:08;39.30;;;26.43;;
19414;SDS011;9843;48.882;12.592;2024-03-08T05:06:35;40.13;;;24.90;;
19414;SDS011;9843;48.882;12.592;2024-03-08T05:09:02;37.73;;;25.70;;
19414;SDS011;9843;48.882;12.592;2024-03-08T05:11:38;38.77;;;24.63;;
19414;SDS011;9843;48.882;12.592;2024-03-08T05:14:06;43.43;;;26.40;;
19414;SDS011;9843;48.882;12.592;2024-03-08T05:16:33;39.87;;;26.33;;
19414;SDS011;9843;48.882;12.592;2024-03-08T05:19:01;36.63;;;27.07;;
19414;SDS011;9843;48.882;12.592;2024-03-08T05:21:28;40.73;;;27.07;;
19414;SDS011;9843;48.882;12.592;2024-03-08T05:23:55;35.33;;;24.20;;
19414;SDS011;9843;48.882;12.592;2024-03-08T05:26:22;41.73;;;27.10;;
19414;SDS011;9843;48.882;12.592;2024-03-08T05:28:49;39.73;;;25.43;;
19414;SDS011;9843;48.882;12.592;2024-03-08T05:31:21;35.03;;;25.60;;
19414;SDS011;9843;48.882;12.592;2024-03-08T05:33:48;37.83;;;25.27;;
19414;SDS011;9843;48.882;12.592;2024-03-08T05:36:15;35.93;;;23.20;;
19414;SDS011;9843;48.882;12.592;2024-03-08T05:38:42;40.27;;;26.10;;
19414;SDS011;9843;48.882;12.592;2024-03-08T05:41:10;42.43;;;23.73;;
19414;SDS011;9843;48.882;12.592;2024-03-08T05:43:37;37.83;;;23.70;;
19414;SDS011;9843;48.882;12.592;2024-03-08T05:46:04;38.83;;;24.30;;
19414;SDS011;9843;48.882;12.592;2024-03-08T05:48:33;47.10;;;29.33;;
19414;SDS011;9843;48.882;12.592;2024-03-08T05:51:00;39.37;;;24.23;;
19414;SDS011;9843;48.882;12.592;2024-03-08T05:53:27;36.03;;;25.87;;
19414;SDS011;9843;48.882;12.592;2024-03-08T05:55:56;45.23;;;29.23;;
19414;SDS011;9843;48.882;12.592;2024-03-08T05:58:23;42.83;;;27.60;;
19414;SDS011;9843;48.882;12.592;2024-03-08T06:00:51;42.73;;;26.53;;
19414;SDS011;9843;48.882;12.592;2024-03-08T06:03:18;40.83;;;27.53;;
19414;SDS011;9843;48.882;12.592;2024-03-08T06:05:48;39.67;;;26.30;;
19414;SDS011;9843;48.882;12.592;2024-03-08T06:08:15;46.00;;;28.00;;
19414;SDS011;9843;48.882;12.592;2024-03-08T06:10:43;45.17;;;28.40;;
19414;SDS011;9843;48.882;12.592;2024-03-08T06:13:11;47.73;;;28.60;;
19414;SDS011;9843;48.882;12.592;2024-03-08T06:15:38;44.30;;;28.40;;
19414;SDS011;9843;48.882;12.592;2024-03-08T06:18:05;56.33;;;28.23;;
19414;SDS011;9843;48.882;12.592;2024-03-08T06:20:35;43.33;;;27.33;;
19414;SDS011;9843;48.882;12.592;2024-03-08T06:23:04;37.17;;;26.70;;
19414;SDS011;9843;48.882;12.592;2024-03-08T06:25:31;37.00;;;25.03;;
19414;SDS011;9843;48.882;12.592;2024-03-08T06:27:59;39.47;;;27.20;;
19414;SDS011;9843;48.882;12.592;2024-03-08T06:30:26;38.13;;;23.73;;
19414;SDS011;9843;48.882;12.592;2024-03-08T06:32:53;38.93;;;24.60;;
19414;SDS011;9843;48.882;12.592;2024-03-08T06:35:20;31.60;;;22.20;;
19414;SDS011;9843;48.882;12.592;2024-03-08T06:37:47;33.17;;;21.20;;
19414;SDS011;9843;48.882;12.592;2024-03-08T06:40:16;29.17;;;19.40;;
19414;SDS011;9843;48.882;12.592;2024-03-08T06:42:43;24.97;;;18.77;;
19414;SDS011;9843;48.882;12.592;2024-03-08T06:45:10;24.40;;;16.90;;
19414;SDS011;9843;48.882;12.592;2024-03-08T06:47:37;23.57;;;16.40;;
19414;SDS011;9843;48.882;12.592;2024-03-08T06:50:08;24.40;;;15.77;;
19414;SDS011;9843;48.882;12.592;2024-03-08T06:52:36;21.87;;;15.90;;
19414;SDS011;9843;48.882;12.592;2024-03-08T06:55:04;26.10;;;16.13;;
19414;SDS011;9843;48.882;12.592;2024-03-08T06:57:32;24.23;;;15.73;;
19414;SDS011;9843;48.882;12.592;2024-03-08T06:59:59;23.63;;;15.77;;
19414;SDS011;9843;48.882;12.592;2024-03-08T07:04:55;20.53;;;14.13;;
19414;SDS011;9843;48.882;12.592;2024-03-08T07:07:22;23.67;;;14.93;;
19414;SDS011;9843;48.882;12.592;2024-03-08T07:09:49;20.37;;;14.30;;
19414;SDS011;9843;48.882;12.592;2024-03-08T07:12:16;28.60;;;16.67;;
19414;SDS011;9843;48.882;12.592;2024-03-08T07:14:47;23.77;;;16.17;;
19414;SDS011;9843;48.882;12.592;2024-03-08T07:17:14;23.07;;;14.43;;
19414;SDS011;9843;48.882;12.592;2024-03-08T07:19:41;19.83;;;13.90;;
19414;SDS011;9843;48.882;12.592;2024-03-08T07:22:08;23.90;;;15.90;;
19414;SDS011;9843;48.882;12.592;2024-03-08T07:24:36;19.37;;;13.20;;
19414;SDS011;9843;48.882;12.592;2024-03-08T07:27:21;20.53;;;14.80;;
19414;SDS011;9843;48.882;12.592;2024-03-08T07:29:49;21.93;;;12.00;;
19414;SDS011;9843;48.882;12.592;2024-03-08T07:32:17;21.53;;;15.20;;
19414;SDS011;9843;48.882;12.592;2024-03-08T07:34:46;24.87;;;15.23;;
19414;SDS011;9843;48.882;12.592;2024-03-08T07:37:14;16.93;;;13.63;;
19414;SDS011;9843;48.882;12.592;2024-03-08T07:39:41;20.53;;;14.50;;
19414;SDS011;9843;48.882;12.592;2024-03-08T07:42:09;21.93;;;14.80;;
19414;SDS011;9843;48.882;12.592;2024-03-08T07:44:37;29.60;;;15.53;;
19414;SDS011;9843;48.882;12.592;2024-03-08T07:47:06;21.67;;;15.07;;
19414;SDS011;9843;48.882;12.592;2024-03-08T07:49:34;17.27;;;13.27;;
19414;SDS011;9843;48.882;12.592;2024-03-08T07:52:02;28.03;;;15.37;;
19414;SDS011;9843;48.882;12.592;2024-03-08T07:54:32;21.80;;;13.77;;
19414;SDS011;9843;48.882;12.592;2024-03-08T07:57:00;22.57;;;14.17;;
19414;SDS011;9843;48.882;12.592;2024-03-08T07:59:28;22.87;;;14.00;;
19414;SDS011;9843;48.882;12.592;2024-03-08T08:01:55;23.10;;;16.83;;
19414;SDS011;9843;48.882;12.592;2024-03-08T08:04:24;27.20;;;16.90;;
19414;SDS011;9843;48.882;12.592;2024-03-08T08:06:52;26.07;;;16.07;;
19414;SDS011;9843;48.882;12.592;2024-03-08T08:09:20;21.67;;;14.47;;
19414;SDS011;9843;48.882;12.592;2024-03-08T08:11:53;20.23;;;13.43;;
19414;SDS011;9843;48.882;12.592;2024-03-08T08:14:20;22.83;;;14.83;;
19414;SDS011;9843;48.882;12.592;2024-03-08T08:16:47;24.60;;;15.63;;
19414;SDS011;9843;48.882;12.592;2024-03-08T08:19:17;21.20;;;14.67;;
19414;SDS011;9843;48.882;12.592;2024-03-08T08:21:46;23.20;;;16.10;;
19414;SDS011;9843;48.882;12.592;2024-03-08T08:24:13;20.80;;;15.40;;
19414;SDS011;9843;48.882;12.592;2024-03-08T08:26:40;20.07;;;14.87;;
19414;SDS011;9843;48.882;12.592;2024-03-08T08:29:09;21.07;;;14.97;;
19414;SDS011;9843;48.882;12.592;2024-03-08T08:31:36;22.03;;;14.60;;
19414;SDS011;9843;48.882;12.592;2024-03-08T08:34:03;26.30;;;16.50;;
19414;SDS011;9843;48.882;12.592;2024-03-08T08:36:32;25.53;;;17.43;;
19414;SDS011;9843;48.882;12.592;2024-03-08T08:39:00;25.93;;;17.23;;
19414;SDS011;9843;48.882;12.592;2024-03-08T08:41:28;23.67;;;15.57;;
19414;SDS011;9843;48.882;12.592;2024-03-08T08:43:55;23.50;;;15.50;;
19414;SDS011;9843;48.882;12.592;2024-03-08T08:46:22;24.43;;;16.10;;
19414;SDS011;9843;48.882;12.592;2024-03-08T08:48:49;25.47;;;18.37;;
19414;SDS011;9843;48.882;12.592;2024-03-08T08:51:17;25.60;;;17.77;;
19414;SDS011;9843;48.882;12.592;2024-03-08T08:53:44;21.43;;;15.97;;
19414;SDS011;9843;48.882;12.592;2024-03-08T08:56:14;24.73;;;15.63;;
19414;SDS011;9843;48.882;12.592;2024-03-08T08:58:41;22.13;;;15.73;;
19414;SDS011;9843;48.882;12.592;2024-03-08T09:01:08;23.67;;;16.27;;
19414;SDS011;9843;48.882;12.592;2024-03-08T09:03:36;27.13;;;15.77;;
19414;SDS011;9843;48.882;12.592;2024-03-08T09:06:06;26.27;;;16.90;;
19414;SDS011;9843;48.882;12.592;2024-03-08T09:08:38;21.30;;;15.93;;
19414;SDS011;9843;48.882;12.592;2024-03-08T09:11:05;25.57;;;14.73;;
19414;SDS011;9843;48.882;12.592;2024-03-08T09:13:33;17.10;;;13.60;;
19414;SDS011;9843;48.882;12.592;2024-03-08T09:16:01;20.80;;;15.17;;
19414;SDS011;9843;48.882;12.592;2024-03-08T09:18:30;18.63;;;15.53;;
19414;SDS011;9843;48.882;12.592;2024-03-08T09:20:57;25.50;;;15.70;;
19414;SDS011;9843;48.882;12.592;2024-03-08T09:23:24;20.53;;;14.87;;
19414;SDS011;9843;48.882;12.592;2024-03-08T09:25:55;20.80;;;14.53;;
19414;SDS011;9843;48.882;12.592;2024-03-08T09:28:22;23.17;;;14.37;;
19414;SDS011;9843;48.882;12.592;2024-03-08T09:30:51;17.03;;;12.07;;
19414;SDS011;9843;48.882;12.592;2024-03-08T09:33:18;22.53;;;14.90;;
19414;SDS011;9843;48.882;12.592;2024-03-08T09:35:45;19.53;;;14.60;;
19414;SDS011;9843;48.882;12.592;2024-03-08T09:38:13;23.00;;;16.87;;
19414;SDS011;9843;48.882;12.592;2024-03-08T09:40:41;25.43;;;15.93;;
19414;SDS011;9843;48.882;12.592;2024-03-08T09:43:08;16.73;;;13.70;;
19414;SDS011;9843;48.882;12.592;2024-03-08T09:45:36;17.83;;;13.93;;
19414;SDS011;9843;48.882;12.592;2024-03-08T09:48:08;20.03;;;14.17;;
19414;SDS011;9843;48.882;12.592;2024-03-08T09:50:38;18.23;;;14.67;;
19414;SDS011;9843;48.882;12.592;2024-03-08T09:53:06;19.73;;;13.30;;
19414;SDS011;9843;48.882;12.592;2024-03-08T09:55:34;18.43;;;12.33;;
19414;SDS011;9843;48.882;12.592;2024-03-08T09:58:01;14.17;;;11.20;;
19414;SDS011;9843;48.882;12.592;2024-03-08T10:01:01;16.10;;;11.30;;
19414;SDS011;9843;48.882;12.592;2024-03-08T10:03:31;16.07;;;13.17;;
19414;SDS011;9843;48.882;12.592;2024-03-08T10:05:58;13.63;;;10.63;;
19414;SDS011;9843;48.882;12.592;2024-03-08T10:08:26;14.73;;;9.43;;
19414;SDS011;9843;48.882;12.592;2024-03-08T10:10:54;14.00;;;11.17;;
19414;SDS011;9843;48.882;12.592;2024-03-08T10:13:23;11.57;;;8.40;;
19414;SDS011;9843;48.882;12.592;2024-03-08T10:15:51;11.80;;;9.40;;
19414;SDS011;9843;48.882;12.592;2024-03-08T10:18:19;13.03;;;10.07;;
19414;SDS011;9843;48.882;12.592;2024-03-08T10:20:47;13.03;;;10.33;;
19414;SDS011;9843;48.882;12.592;2024-03-08T10:23:28;10.57;;;8.90;;
19414;SDS011;9843;48.882;12.592;2024-03-08T10:25:56;14.47;;;9.90;;
19414;SDS011;9843;48.882;12.592;2024-03-08T10:28:23;11.10;;;8.97;;
19414;SDS011;9843;48.882;12.592;2024-03-08T10:30:50;11.23;;;9.73;;
19414;SDS011;9843;48.882;12.592;2024-03-08T10:33:18;9.93;;;8.70;;
19414;SDS011;9843;48.882;12.592;2024-03-08T10:35:45;14.47;;;8.40;;
19414;SDS011;9843;48.882;12.592;2024-03-08T10:38:13;14.37;;;11.17;;
19414;SDS011;9843;48.882;12.592;2024-03-08T10:40:42;13.43;;;10.17;;
19414;SDS011;9843;48.882;12.592;2024-03-08T10:43:12;14.93;;;10.57;;
19414;SDS011;9843;48.882;12.592;2024-03-08T10:45:42;12.37;;;9.13;;
19414;SDS011;9843;48.882;12.592;2024-03-08T10:48:16;11.63;;;8.97;;
19414;SDS011;9843;48.882;12.592;2024-03-08T10:50:48;9.30;;;7.73;;
19414;SDS011;9843;48.882;12.592;2024-03-08T10:53:19;9.87;;;7.03;;
19414;SDS011;9843;48.882;12.592;2024-03-08T10:55:46;13.27;;;6.47;;
19414;SDS011;9843;48.882;12.592;2024-03-08T10:58:14;8.37;;;6.23;;
19414;SDS011;9843;48.882;12.592;2024-03-08T11:00:41;8.87;;;7.23;;
19414;SDS011;9843;48.882;12.592;2024-03-08T11:03:11;9.57;;;8.67;;
19414;SDS011;9843;48.882;12.592;2024-03-08T11:05:59;9.57;;;7.53;;
19414;SDS011;9843;48.882;12.592;2024-03-08T11:08:28;10.47;;;7.83;;
19414;SDS011;9843;48.882;12.592;2024-03-08T11:10:59;9.93;;;7.67;;
19414;SDS011;9843;48.882;12.592;2024-03-08T11:13:32;9.97;;;8.03;;
19414;SDS011;9843;48.882;12.592;2024-03-08T11:15:59;8.10;;;6.27;;
19414;SDS011;9843;48.882;12.592;2024-03-08T11:18:28;6.30;;;5.60;;
19414;SDS011;9843;48.882;12.592;2024-03-08T11:20:55;7.70;;;5.77;;
19414;SDS011;9843;48.882;12.592;2024-03-08T11:23:23;9.53;;;6.43;;
19414;SDS011;9843;48.882;12.592;2024-03-08T11:25:52;10.53;;;7.27;;
19414;SDS011;9843;48.882;12.592;2024-03-08T11:28:20;6.70;;;5.77;;
19414;SDS011;9843;48.882;12.592;2024-03-08T11:31:21;8.93;;;7.17;;
19414;SDS011;9843;48.882;12.592;2024-03-08T11:33:36;8.20;;;6.57;;
19414;SDS011;9843;48.882;12.592;2024-03-08T11:36:09;10.53;;;6.03;;
19414;SDS011;9843;48.882;12.592;2024-03-08T11:38:41;8.23;;;5.90;;
19414;SDS011;9843;48.882;12.592;2024-03-08T11:41:09;7.83;;;6.90;;
19414;SDS011;9843;48.882;12.592;2024-03-08T11:43:39;9.80;;;8.03;;
19414;SDS011;9843;48.882;12.592;2024-03-08T11:46:09;9.57;;;6.93;;
19414;SDS011;9843;48.882;12.592;2024-03-08T11:48:39;9.67;;;7.50;;
19414;SDS011;9843;48.882;12.592;2024-03-08T11:51:07;10.87;;;6.83;;
19414;SDS011;9843;48.882;12.592;2024-03-08T11:53:35;10.43;;;7.40;;
19414;SDS011;9843;48.882;12.592;2024-03-08T11:56:06;9.93;;;7.87;;
19414;SDS011;9843;48.882;12.592;2024-03-08T11:58:33;10.23;;;7.60;;
19414;SDS011;9843;48.882;12.592;2024-03-08T12:01:02;11.17;;;8.97;;
19414;SDS011;9843;48.882;12.592;2024-03-08T12:03:30;9.63;;;7.80;;
19414;SDS011;9843;48.882;12.592;2024-03-08T12:06:00;11.13;;;8.87;;
19414;SDS011;9843;48.882;12.592;2024-03-08T12:08:28;11.43;;;7.27;;
19414;SDS011;9843;48.882;12.592;2024-03-08T12:10:57;10.57;;;8.37;;
19414;SDS011;9843;48.882;12.592;2024-03-08T12:13:25;8.83;;;7.07;;
19414;SDS011;9843;48.882;12.592;2024-03-08T12:15:55;9.10;;;6.57;;
19414;SDS011;9843;48.882;12.592;2024-03-08T12:18:23;11.70;;;8.77;;
19414;SDS011;9843;48.882;12.592;2024-03-08T12:20:50;9.27;;;8.27;;
19414;SDS011;9843;48.882;12.592;2024-03-08T12:23:18;9.57;;;8.00;;
19414;SDS011;9843;48.882;12.592;2024-03-08T12:25:45;11.60;;;8.67;;
19414;SDS011;9843;48.882;12.592;2024-03-08T12:28:13;9.73;;;7.73;;
19414;SDS011;9843;48.882;12.592;2024-03-08T12:30:45;10.53;;;7.87;;
19414;SDS011;9843;48.882;12.592;2024-03-08T12:33:13;14.00;;;8.17;;
19414;SDS011;9843;48.882;12.592;2024-03-08T12:35:49;11.43;;;7.73;;
19414;SDS011;9843;48.882;12.592;2024-03-08T12:38:19;8.60;;;6.93;;
19414;SDS011;9843;48.882;12.592;2024-03-08T12:40:50;8.20;;;7.40;;
19414;SDS011;9843;48.882;12.592;2024-03-08T12:43:18;8.00;;;7.20;;
19414;SDS011;9843;48.882;12.592;2024-03-08T12:45:45;11.80;;;8.17;;
19414;SDS011;9843;48.882;12.592;2024-03-08T12:48:13;13.50;;;8.47;;
19414;SDS011;9843;48.882;12.592;2024-03-08T12:50:40;10.23;;;8.03;;
19414;SDS011;9843;48.882;12.592;2024-03-08T12:53:09;9.70;;;6.93;;
19414;SDS011;9843;48.882;12.592;2024-03-08T12:55:37;12.43;;;8.00;;
19414;SDS011;9843;48.882;12.592;2024-03-08T12:58:05;12.47;;;7.70;;
19414;SDS011;9843;48.882;12.592;2024-03-08T13:00:32;8.20;;;6.43;;
19414;SDS011;9843;48.882;12.592;2024-03-08T13:03:01;7.80;;;7.03;;
19414;SDS011;9843;48.882;12.592;2024-03-08T13:05:28;8.13;;;7.00;;
19414;SDS011;9843;48.882;12.592;2024-03-08T13:07:55;10.20;;;7.60;;
19414;SDS011;9843;48.882;12.592;2024-03-08T13:10:22;9.13;;;7.50;;
19414;SDS011;9843;48.882;12.592;2024-03-08T13:12:51;7.10;;;6.30;;
19414;SDS011;9843;48.882;12.592;2024-03-08T13:15:19;7.70;;;6.53;;
19414;SDS011;9843;48.882;12.592;2024-03-08T13:17:46;12.23;;;7.10;;
19414;SDS011;9843;48.882;12.592;2024-03-08T13:20:14;7.33;;;6.30;;
19414;SDS011;9843;48.882;12.592;2024-03-08T13:22:45;5.93;;;4.93;;
19414;SDS011;9843;48.882;12.592;2024-03-08T13:25:12;8.03;;;5.83;;
19414;SDS011;9843;48.882;12.592;2024-03-08T13:27:40;7.50;;;6.27;;
19414;SDS011;9843;48.882;12.592;2024-03-08T13:30:09;7.80;;;6.50;;
19414;SDS011;9843;48.882;12.592;2024-03-08T13:32:39;7.83;;;6.07;;
19414;SDS011;9843;48.882;12.592;2024-03-08T13:35:08;7.57;;;5.73;;
19414;SDS011;9843;48.882;12.592;2024-03-08T13:37:37;7.60;;;5.77;;
19414;SDS011;9843;48.882;12.592;2024-03-08T13:40:05;11.23;;;9.43;;
19414;SDS011;9843;48.882;12.592;2024-03-08T13:42:36;9.57;;;7.33;;
19414;SDS011;9843;48.882;12.592;2024-03-08T13:45:03;13.87;;;8.40;;
19414;SDS011;9843;48.882;12.592;2024-03-08T13:47:33;7.63;;;6.87;;
19414;SDS011;9843;48.882;12.592;2024-03-08T13:50:00;8.17;;;6.83;;
19414;SDS011;9843;48.882;12.592;2024-03-08T13:52:28;8.07;;;6.13;;
19414;SDS011;9843;48.882;12.592;2024-03-08T13:54:55;7.83;;;6.03;;
19414;SDS011;9843;48.882;12.592;2024-03-08T13:57:22;9.50;;;7.83;;
19414;SDS011;9843;48.882;12.592;2024-03-08T13:59:49;5.73;;;5.13;;
19414;SDS011;9843;48.882;12.592;2024-03-08T14:02:16;14.73;;;6.70;;
19414;SDS011;9843;48.882;12.592;2024-03-08T14:04:45;8.10;;;5.77;;
19414;SDS011;9843;48.882;12.592;2024-03-08T14:07:12;8.70;;;7.13;;
19414;SDS011;9843;48.882;12.592;2024-03-08T14:09:39;8.20;;;6.87;;
19414;SDS011;9843;48.882;12.592;2024-03-08T14:12:08;8.40;;;5.47;;
19414;SDS011;9843;48.882;12.592;2024-03-08T14:14:35;10.97;;;7.10;;
19414;SDS011;9843;48.882;12.592;2024-03-08T14:17:02;11.73;;;6.03;;
19414;SDS011;9843;48.882;12.592;2024-03-08T14:19:31;11.03;;;7.40;;
19414;SDS011;9843;48.882;12.592;2024-03-08T14:22:00;6.00;;;4.93;;
19414;SDS011;9843;48.882;12.592;2024-03-08T14:24:29;8.60;;;6.83;;
19414;SDS011;9843;48.882;12.592;2024-03-08T14:26:57;9.00;;;7.53;;
19414;SDS011;9843;48.882;12.592;2024-03-08T14:29:24;7.83;;;6.50;;
19414;SDS011;9843;48.882;12.592;2024-03-08T14:31:54;6.40;;;5.77;;
19414;SDS011;9843;48.882;12.592;2024-03-08T14:34:23;10.70;;;7.17;;
19414;SDS011;9843;48.882;12.592;2024-03-08T14:36:52;8.83;;;6.70;;